Time;durP1;ratioP1;P1;durP2;ratioP2;P2;SDS_P1;SDS_P2;PMS_P1;PMS_P2;Temp;Humidity;BMP_temperature;BMP_pressure;BME280_temperature;BME280_humidity;BME280_pressure;Samples;Min_cycle;Max_cycle;Signal;HPM_P1;HPM_P2
2022/12/01 00:00:31;;;;;;;22.05;17.27;;;;;;;;;;5136664;27;20410;-85
2022/12/01 00:02:58;;;;;;;19.92;16.42;;;;;;;;;;5118368;27;20451;-84
2022/12/01 00:05:24;;;;;;;20.07;17.17;;;;;;;;;;5136773;27;20382;-84
2022/12/01 00:07:50;;;;;;;21.50;16.98;;;;;;;;;;5126311;27;20463;-84
2022/12/01 00:10:25;;;;;;;22.35;16.88;;;;;;;;;;5125988;27;20383;-84
2022/12/01 00:12:55;;;;;;;22.77;17.27;;;;;;;;;;5123398;27;20876;-84
2022/12/01 00:15:29;;;;;;;19.80;16.30;;;;;;;;;;5135725;27;20532;-85
2022/12/01 00:17:55;;;;;;;23.63;17.88;;;;;;;;;;5128797;27;20441;-85
2022/12/01 00:20:21;;;;;;;22.23;17.95;;;;;;;;;;5115379;27;20400;-85
2022/12/01 00:22:48;;;;;;;23.80;18.63;;;;;;;;;;5117309;27;20372;-84
2022/12/01 00:25:14;;;;;;;23.02;18.13;;;;;;;;;;5136067;27;20379;-84
2022/12/01 00:27:41;;;;;;;22.70;17.50;;;;;;;;;;5136278;27;20468;-84
2022/12/01 00:30:08;;;;;;;23.60;17.90;;;;;;;;;;5136036;27;20425;-84
2022/12/01 00:32:34;;;;;;;23.05;18.02;;;;;;;;;;5138637;27;20373;-84
2022/12/01 00:35:00;;;;;;;23.58;18.55;;;;;;;;;;5132975;27;20828;-84
2022/12/01 00:37:28;;;;;;;23.63;19.17;;;;;;;;;;5117888;27;20387;-84
2022/12/01 00:39:54;;;;;;;24.95;18.77;;;;;;;;;;5136231;27;20409;-84
2022/12/01 00:42:20;;;;;;;23.00;18.58;;;;;;;;;;5117891;27;20378;-83
2022/12/01 00:44:46;;;;;;;25.27;19.02;;;;;;;;;;5135266;27;20842;-83
2022/12/01 00:47:13;;;;;;;25.10;18.73;;;;;;;;;;5135098;27;20825;-84
2022/12/01 00:49:41;;;;;;;24.90;18.73;;;;;;;;;;5130153;27;20475;-83
2022/12/01 00:52:07;;;;;;;27.55;19.65;;;;;;;;;;5135193;27;20389;-83
2022/12/01 00:54:33;;;;;;;25.30;19.47;;;;;;;;;;5135170;27;20375;-84
2022/12/01 00:57:10;;;;;;;24.33;19.02;;;;;;;;;;5134771;27;20855;-85
2022/12/01 00:59:36;;;;;;;26.25;19.83;;;;;;;;;;5129441;27;20491;-83
2022/12/01 01:02:06;;;;;;;24.92;19.45;;;;;;;;;;5117074;27;20928;-83
2022/12/01 01:04:33;;;;;;;25.55;19.42;;;;;;;;;;5132535;27;20426;-83
2022/12/01 01:06:59;;;;;;;28.13;20.00;;;;;;;;;;5131969;27;20425;-84
2022/12/01 01:09:25;;;;;;;25.55;18.90;;;;;;;;;;5135794;27;20371;-83
2022/12/01 01:11:52;;;;;;;26.20;20.23;;;;;;;;;;5135511;27;20394;-83
2022/12/01 01:14:18;;;;;;;27.25;20.48;;;;;;;;;;5135109;27;20371;-83
2022/12/01 01:16:44;;;;;;;25.13;20.42;;;;;;;;;;5137851;27;20367;-83
2022/12/01 01:19:10;;;;;;;27.17;20.55;;;;;;;;;;5134755;27;20944;-83
2022/12/01 01:21:36;;;;;;;29.75;21.33;;;;;;;;;;5135192;27;20406;-83
2022/12/01 01:24:02;;;;;;;26.98;19.60;;;;;;;;;;5135019;27;20371;-83
2022/12/01 01:26:29;;;;;;;31.85;22.35;;;;;;;;;;5135162;27;20857;-82
2022/12/01 01:28:56;;;;;;;39.65;26.05;;;;;;;;;;5135301;27;20883;-83
2022/12/01 01:31:24;;;;;;;38.75;25.23;;;;;;;;;;5134959;27;20386;-83
2022/12/01 01:33:50;;;;;;;32.10;22.17;;;;;;;;;;5134959;27;20859;-85
2022/12/01 01:36:17;;;;;;;24.45;18.52;;;;;;;;;;5135026;27;20414;-84
2022/12/01 01:38:43;;;;;;;24.45;18.23;;;;;;;;;;5135289;27;20389;-84
2022/12/01 01:41:10;;;;;;;24.90;19.85;;;;;;;;;;5115676;27;20468;-84
2022/12/01 01:43:42;;;;;;;24.00;18.13;;;;;;;;;;5134469;27;20378;-84
2022/12/01 01:46:10;;;;;;;29.08;20.58;;;;;;;;;;5134584;27;20466;-83
2022/12/01 01:48:37;;;;;;;47.03;28.90;;;;;;;;;;5134347;27;20784;-83
2022/12/01 01:51:04;;;;;;;46.50;27.05;;;;;;;;;;5115354;27;20386;-84
2022/12/01 01:53:30;;;;;;;94.93;43.50;;;;;;;;;;5115772;27;20379;-83
2022/12/01 01:55:56;;;;;;;87.88;40.10;;;;;;;;;;5133996;27;20389;-84
2022/12/01 01:58:22;;;;;;;114.45;50.58;;;;;;;;;;5133987;27;20376;-83
2022/12/01 02:00:49;;;;;;;192.40;76.38;;;;;;;;;;5134007;27;20435;-85
2022/12/01 02:03:18;;;;;;;83.38;39.05;;;;;;;;;;5115482;27;20833;-85
2022/12/01 02:05:44;;;;;;;29.23;19.98;;;;;;;;;;5134683;27;20414;-83
2022/12/01 02:08:13;;;;;;;46.70;26.08;;;;;;;;;;5134402;27;20382;-84
2022/12/01 02:10:57;;;;;;;28.85;19.77;;;;;;;;;;5115451;27;20751;-84
2022/12/01 02:13:23;;;;;;;27.40;19.42;;;;;;;;;;5134152;27;20411;-84
2022/12/01 02:15:49;;;;;;;26.55;19.08;;;;;;;;;;5133909;27;20382;-83
2022/12/01 02:18:21;;;;;;;206.93;83.00;;;;;;;;;;5133803;27;20826;-84
2022/12/01 02:20:50;;;;;;;76.45;35.97;;;;;;;;;;5133563;27;20482;-84
2022/12/01 02:23:19;;;;;;;44.08;25.52;;;;;;;;;;5134614;27;20382;-85
2022/12/01 02:25:50;;;;;;;35.37;22.50;;;;;;;;;;5121204;27;20876;-85
2022/12/01 02:28:28;;;;;;;33.55;22.20;;;;;;;;;;5122571;27;20410;-84
2022/12/01 02:30:58;;;;;;;74.33;36.47;;;;;;;;;;5132227;27;20430;-83
2022/12/01 02:33:28;;;;;;;32.90;22.17;;;;;;;;;;5132880;27;20385;-85
2022/12/01 02:36:00;;;;;;;33.25;20.85;;;;;;;;;;5132813;27;20408;-84
2022/12/01 02:38:40;;;;;;;27.88;20.52;;;;;;;;;;5133044;27;20790;-84
2022/12/01 02:41:09;;;;;;;27.30;20.70;;;;;;;;;;5132774;27;20462;-84
2022/12/01 02:43:38;;;;;;;25.73;19.17;;;;;;;;;;5133949;27;20418;-84
2022/12/01 02:46:04;;;;;;;32.78;25.98;;;;;;;;;;5133622;27;20442;-84
2022/12/01 02:48:32;;;;;;;26.48;20.70;;;;;;;;;;5116184;27;20378;-84
2022/12/01 02:50:59;;;;;;;23.58;18.17;;;;;;;;;;5134596;27;20409;-84
2022/12/01 02:53:25;;;;;;;24.13;18.65;;;;;;;;;;5136016;27;20940;-84
2022/12/01 02:55:52;;;;;;;24.77;18.88;;;;;;;;;;5131052;27;20445;-84
2022/12/01 02:58:18;;;;;;;22.98;18.27;;;;;;;;;;5126969;27;20370;-83
2022/12/01 03:00:54;;;;;;;22.95;18.40;;;;;;;;;;5131703;27;20409;-84
2022/12/01 03:03:26;;;;;;;24.55;18.08;;;;;;;;;;5114974;27;20856;-84
2022/12/01 03:06:00;;;;;;;23.35;18.55;;;;;;;;;;5134030;27;20382;-84
2022/12/01 03:08:32;;;;;;;23.48;17.83;;;;;;;;;;5133177;27;20462;-84
2022/12/01 03:10:59;;;;;;;21.38;17.42;;;;;;;;;;5133615;27;20427;-84
2022/12/01 03:13:37;;;;;;;23.52;18.27;;;;;;;;;;5135122;27;20382;-84
2022/12/01 03:16:11;;;;;;;24.42;18.90;;;;;;;;;;5133311;27;20387;-84
2022/12/01 03:18:45;;;;;;;22.83;18.30;;;;;;;;;;5133389;27;20422;-84
2022/12/01 03:21:23;;;;;;;21.88;17.85;;;;;;;;;;5133316;27;20934;-84
2022/12/01 03:23:54;;;;;;;23.67;18.80;;;;;;;;;;5133297;27;20847;-83
2022/12/01 03:26:22;;;;;;;24.50;19.27;;;;;;;;;;5133544;27;20889;-84
2022/12/01 03:28:53;;;;;;;22.85;17.92;;;;;;;;;;5135214;27;20411;-84
2022/12/01 03:31:24;;;;;;;20.70;16.85;;;;;;;;;;5137706;27;20443;-84
2022/12/01 03:33:57;;;;;;;23.88;17.92;;;;;;;;;;5137222;27;20871;-84
2022/12/01 03:36:32;;;;;;;21.88;17.60;;;;;;;;;;5138019;27;20457;-84
2022/12/01 03:39:00;;;;;;;21.17;17.52;;;;;;;;;;5123730;27;20415;-84
2022/12/01 03:41:29;;;;;;;21.35;17.27;;;;;;;;;;5120309;27;20442;-84
2022/12/01 03:43:57;;;;;;;20.55;16.70;;;;;;;;;;5137298;27;20387;-84
2022/12/01 03:46:35;;;;;;;18.08;16.17;;;;;;;;;;5118683;27;20727;-83
2022/12/01 03:49:02;;;;;;;19.58;15.95;;;;;;;;;;5137421;27;20463;-84
2022/12/01 03:51:37;;;;;;;17.47;15.23;;;;;;;;;;5136336;27;20849;-84
2022/12/01 03:54:03;;;;;;;18.42;15.90;;;;;;;;;;5136953;27;20790;-84
2022/12/01 03:56:32;;;;;;;18.23;16.05;;;;;;;;;;5136066;27;20379;-84
2022/12/01 03:59:00;;;;;;;17.30;14.68;;;;;;;;;;5136408;27;20493;-84
2022/12/01 04:01:31;;;;;;;17.25;15.00;;;;;;;;;;5136294;27;20886;-84
2022/12/01 04:03:59;;;;;;;17.00;15.20;;;;;;;;;;5136857;27;20547;-84
2022/12/01 04:06:25;;;;;;;16.83;15.03;;;;;;;;;;5136308;27;20430;-84
2022/12/01 04:08:51;;;;;;;18.80;16.13;;;;;;;;;;5122376;27;20370;-84
2022/12/01 04:14:02;;;;;;;19.77;16.67;;;;;;;;;;5137935;27;22005;-84
2022/12/01 04:16:28;;;;;;;21.05;17.73;;;;;;;;;;5136321;27;20379;-84
2022/12/01 04:18:54;;;;;;;21.90;17.77;;;;;;;;;;5132972;27;20859;-84
2022/12/01 04:21:19;;;;;;;23.05;18.08;;;;;;;;;;5117834;27;20410;-84
2022/12/01 04:24:01;;;;;;;21.23;17.33;;;;;;;;;;5118090;27;20379;-84
2022/12/01 04:26:28;;;;;;;22.13;17.63;;;;;;;;;;5136427;27;20373;-84
2022/12/01 04:28:54;;;;;;;21.48;17.60;;;;;;;;;;5136045;27;20382;-84
2022/12/01 04:31:20;;;;;;;24.35;19.20;;;;;;;;;;5136305;27;20867;-84
2022/12/01 04:33:46;;;;;;;23.83;18.52;;;;;;;;;;5136424;27;20462;-83
2022/12/01 04:36:12;;;;;;;23.30;18.25;;;;;;;;;;5117784;27;20929;-84
2022/12/01 04:38:38;;;;;;;23.63;19.13;;;;;;;;;;5117817;27;20387;-83
2022/12/01 04:41:08;;;;;;;26.10;19.83;;;;;;;;;;5135932;27;20414;-84
2022/12/01 04:43:34;;;;;;;23.70;18.98;;;;;;;;;;5135833;27;20461;-84
2022/12/01 04:46:00;;;;;;;25.60;19.40;;;;;;;;;;5135876;27;20381;-84
2022/12/01 04:48:26;;;;;;;26.02;20.08;;;;;;;;;;5135845;27;20387;-84
2022/12/01 04:50:52;;;;;;;24.40;19.17;;;;;;;;;;5136121;27;20408;-84
2022/12/01 04:53:18;;;;;;;24.95;19.05;;;;;;;;;;5135909;27;20758;-84
2022/12/01 04:55:44;;;;;;;23.95;18.75;;;;;;;;;;5135932;27;20370;-84
2022/12/01 04:58:10;;;;;;;24.02;18.50;;;;;;;;;;5126605;27;20932;-84
2022/12/01 05:00:36;;;;;;;24.85;19.33;;;;;;;;;;5133655;27;20410;-84
2022/12/01 05:03:02;;;;;;;24.85;19.10;;;;;;;;;;5137998;27;20393;-84
2022/12/01 05:05:29;;;;;;;25.73;19.10;;;;;;;;;;5130886;27;20396;-84
2022/12/01 05:07:55;;;;;;;23.70;18.57;;;;;;;;;;5133810;27;20408;-83
2022/12/01 05:10:21;;;;;;;25.88;19.23;;;;;;;;;;5115363;27;20906;-84
2022/12/01 05:12:48;;;;;;;24.08;19.15;;;;;;;;;;5134427;27;20377;-84
2022/12/01 05:15:14;;;;;;;25.27;19.70;;;;;;;;;;5133366;27;20416;-84
2022/12/01 05:17:40;;;;;;;25.23;19.63;;;;;;;;;;5134821;27;20379;-87
2022/12/01 05:22:51;;;;;;;41.50;25.73;;;;;;;;;;5120584;27;20464;-88
2022/12/01 05:25:20;;;;;;;29.77;21.00;;;;;;;;;;5116344;27;20467;-87
2022/12/01 05:27:46;;;;;;;29.03;20.60;;;;;;;;;;5120571;27;20412;-88
2022/12/01 05:30:12;;;;;;;22.95;18.52;;;;;;;;;;5116307;27;20410;-87
2022/12/01 05:32:38;;;;;;;22.85;18.13;;;;;;;;;;5116501;27;20517;-87
2022/12/01 05:35:04;;;;;;;51.30;27.80;;;;;;;;;;5134732;27;20915;-87
2022/12/01 05:37:33;;;;;;;31.90;22.10;;;;;;;;;;5134197;27;20471;-88
2022/12/01 05:39:59;;;;;;;27.37;19.40;;;;;;;;;;5134748;27;20413;-87
2022/12/01 05:42:25;;;;;;;27.35;20.08;;;;;;;;;;5134194;27;20383;-89
2022/12/01 05:44:51;;;;;;;24.15;19.02;;;;;;;;;;5134688;27;20761;-88
2022/12/01 05:47:17;;;;;;;22.85;17.80;;;;;;;;;;5133906;27;20389;-89
2022/12/01 05:49:43;;;;;;;19.50;16.75;;;;;;;;;;5134668;27;20847;-88
2022/12/01 05:52:09;;;;;;;22.83;17.52;;;;;;;;;;5133946;27;20418;-87
2022/12/01 05:54:35;;;;;;;23.35;17.70;;;;;;;;;;5136070;27;20400;-87
2022/12/01 05:57:01;;;;;;;21.15;17.38;;;;;;;;;;5133600;27;20725;-88
2022/12/01 05:59:27;;;;;;;22.88;17.67;;;;;;;;;;5108414;27;20383;-88
2022/12/01 06:01:53;;;;;;;21.75;17.02;;;;;;;;;;5133392;27;20402;-88
2022/12/01 06:04:19;;;;;;;20.17;15.73;;;;;;;;;;5132845;27;20405;-88
2022/12/01 06:06:45;;;;;;;20.05;16.40;;;;;;;;;;5133944;27;20379;-87
2022/12/01 06:09:11;;;;;;;20.13;15.93;;;;;;;;;;5116502;27;20878;-89
2022/12/01 06:11:37;;;;;;;18.25;15.75;;;;;;;;;;5132599;27;20378;-88
2022/12/01 06:14:03;;;;;;;17.57;15.27;;;;;;;;;;5134554;27;20390;-87
2022/12/01 06:16:29;;;;;;;18.00;15.85;;;;;;;;;;5137884;27;20382;-89
2022/12/01 06:18:55;;;;;;;18.27;15.82;;;;;;;;;;5135351;27;20978;-87
2022/12/01 06:21:21;;;;;;;18.40;15.38;;;;;;;;;;5140743;27;20410;-87
2022/12/01 06:23:47;;;;;;;18.58;14.98;;;;;;;;;;5136807;27;20479;-89
2022/12/01 06:26:13;;;;;;;18.13;15.60;;;;;;;;;;5134967;27;20404;-88
2022/12/01 06:28:39;;;;;;;18.42;15.30;;;;;;;;;;5135463;27;20447;-88
2022/12/01 06:31:05;;;;;;;20.42;16.25;;;;;;;;;;5134197;27;20743;-89
2022/12/01 06:33:31;;;;;;;19.80;15.43;;;;;;;;;;5134677;27;20465;-88
2022/12/01 06:35:58;;;;;;;18.30;15.70;;;;;;;;;;5116117;27;20383;-88
2022/12/01 06:38:24;;;;;;;17.85;14.48;;;;;;;;;;5133878;27;20385;-88
2022/12/01 06:40:50;;;;;;;16.88;14.75;;;;;;;;;;5133802;27;20539;-87
2022/12/01 06:43:16;;;;;;;16.48;14.40;;;;;;;;;;5133853;27;20854;-88
2022/12/01 06:45:42;;;;;;;18.20;14.90;;;;;;;;;;5115600;27;20475;-88
2022/12/01 06:48:08;;;;;;;16.45;14.63;;;;;;;;;;5133844;27;20388;-88
2022/12/01 06:50:34;;;;;;;18.30;15.25;;;;;;;;;;5133839;27;20375;-88
2022/12/01 06:53:00;;;;;;;16.27;14.30;;;;;;;;;;5130519;27;20383;-87
2022/12/01 06:55:26;;;;;;;18.77;15.13;;;;;;;;;;5115404;27;20874;-88
2022/12/01 06:57:52;;;;;;;18.27;15.43;;;;;;;;;;5125439;27;20381;-88
2022/12/01 07:00:18;;;;;;;17.63;14.40;;;;;;;;;;5133469;27;20487;-88
2022/12/01 07:02:44;;;;;;;16.85;14.45;;;;;;;;;;5118116;27;20428;-89
2022/12/01 07:05:10;;;;;;;16.75;14.80;;;;;;;;;;5133153;27;20375;-88
2022/12/01 07:07:37;;;;;;;16.35;14.65;;;;;;;;;;5132726;27;20485;-89
2022/12/01 07:10:03;;;;;;;17.77;15.07;;;;;;;;;;5114461;27;20389;-88
2022/12/01 07:12:30;;;;;;;18.17;14.93;;;;;;;;;;5132914;27;20413;-88
2022/12/01 07:14:57;;;;;;;18.83;14.63;;;;;;;;;;5133412;27;20389;-88
2022/12/01 07:17:23;;;;;;;18.17;15.55;;;;;;;;;;5114904;27;20791;-87
2022/12/01 07:19:49;;;;;;;18.38;14.65;;;;;;;;;;5133591;27;20382;-88
2022/12/01 07:22:15;;;;;;;17.23;14.75;;;;;;;;;;5133484;27;20398;-88
2022/12/01 07:24:41;;;;;;;17.58;14.65;;;;;;;;;;5114772;28;20867;-88
2022/12/01 07:27:07;;;;;;;17.92;15.05;;;;;;;;;;5133102;27;20475;-87
2022/12/01 07:29:33;;;;;;;20.17;15.88;;;;;;;;;;5133531;27;20791;-88
2022/12/01 07:31:59;;;;;;;18.48;14.98;;;;;;;;;;5133514;28;20383;-89
2022/12/01 07:34:25;;;;;;;17.50;14.77;;;;;;;;;;5131166;27;20854;-87
2022/12/01 07:36:51;;;;;;;18.15;15.38;;;;;;;;;;5132928;27;20375;-88
2022/12/01 07:39:17;;;;;;;19.60;16.00;;;;;;;;;;5133198;27;20375;-89
2022/12/01 07:41:43;;;;;;;21.33;16.48;;;;;;;;;;5133028;27;20415;-87
2022/12/01 07:44:09;;;;;;;21.23;16.75;;;;;;;;;;5133291;27;20374;-87
2022/12/01 07:46:36;;;;;;;32.83;23.25;;;;;;;;;;5133017;27;20390;-88
2022/12/01 07:49:04;;;;;;;40.65;26.70;;;;;;;;;;5133040;27;20398;-88
2022/12/01 07:51:30;;;;;;;27.70;20.10;;;;;;;;;;5132834;27;20866;-87
2022/12/01 07:54:01;;;;;;;30.17;21.30;;;;;;;;;;5133170;27;20381;-87
2022/12/01 07:56:27;;;;;;;32.40;22.77;;;;;;;;;;5114875;27;20407;-89
2022/12/01 07:58:53;;;;;;;24.80;18.60;;;;;;;;;;5124217;27;20417;-87
2022/12/01 08:01:21;;;;;;;31.17;21.60;;;;;;;;;;5114355;28;20417;-88
2022/12/01 08:03:51;;;;;;;22.33;18.00;;;;;;;;;;5133244;27;20715;-89
2022/12/01 08:06:17;;;;;;;25.48;18.85;;;;;;;;;;5113141;28;20783;-88
2022/12/01 08:08:43;;;;;;;36.72;23.83;;;;;;;;;;5112271;28;20909;-89
2022/12/01 08:11:10;;;;;;;25.70;19.48;;;;;;;;;;5132574;27;20371;-85
2022/12/01 08:13:37;;;;;;;20.88;17.65;;;;;;;;;;5133212;27;20423;-84
2022/12/01 08:16:04;;;;;;;148.63;60.30;;;;;;;;;;5136145;27;20436;-85
2022/12/01 08:18:30;;;;;;;23.08;18.38;;;;;;;;;;5136644;27;20376;-86
2022/12/01 08:20:57;;;;;;;25.67;19.27;;;;;;;;;;5136433;27;20410;-85
2022/12/01 08:23:23;;;;;;;23.55;18.73;;;;;;;;;;5137735;27;20431;-85
2022/12/01 08:25:51;;;;;;;24.02;19.67;;;;;;;;;;5136560;27;20481;-86
2022/12/01 08:28:17;;;;;;;27.55;21.70;;;;;;;;;;5136608;27;20442;-85
2022/12/01 08:30:43;;;;;;;28.20;22.35;;;;;;;;;;5136381;27;20386;-84
2022/12/01 08:33:09;;;;;;;24.05;19.30;;;;;;;;;;5136110;27;20378;-84
2022/12/01 08:35:36;;;;;;;25.95;19.15;;;;;;;;;;5134503;27;20377;-84
2022/12/01 08:38:02;;;;;;;26.40;19.90;;;;;;;;;;5135794;27;20383;-84
2022/12/01 08:40:28;;;;;;;26.95;20.45;;;;;;;;;;5135911;27;20406;-84
2022/12/01 08:42:54;;;;;;;26.40;20.67;;;;;;;;;;5133588;27;20451;-84
2022/12/01 08:45:21;;;;;;;26.67;20.13;;;;;;;;;;5136120;27;20379;-84
2022/12/01 08:47:48;;;;;;;26.43;20.67;;;;;;;;;;5135959;27;20370;-83
2022/12/01 08:50:14;;;;;;;24.35;18.77;;;;;;;;;;5136012;27;20379;-83
2022/12/01 08:52:40;;;;;;;39.20;26.90;;;;;;;;;;5117639;27;20391;-84
2022/12/01 08:55:06;;;;;;;27.95;21.05;;;;;;;;;;5133251;27;20393;-85
2022/12/01 08:57:32;;;;;;;33.75;24.67;;;;;;;;;;5133776;27;20413;-84
2022/12/01 08:59:58;;;;;;;27.52;20.75;;;;;;;;;;5117043;27;20917;-84
2022/12/01 09:02:24;;;;;;;27.27;21.17;;;;;;;;;;5135270;27;20367;-83
2022/12/01 09:04:50;;;;;;;26.42;20.25;;;;;;;;;;5134845;27;20377;-83
2022/12/01 09:07:17;;;;;;;25.45;19.75;;;;;;;;;;5134851;27;20836;-84
2022/12/01 09:09:43;;;;;;;25.90;19.98;;;;;;;;;;5139358;27;20380;-83
2022/12/01 09:12:10;;;;;;;26.98;20.92;;;;;;;;;;5134068;27;20378;-84
2022/12/01 09:14:39;;;;;;;26.53;20.83;;;;;;;;;;5135365;27;20959;-83
2022/12/01 09:17:06;;;;;;;28.50;20.47;;;;;;;;;;5113508;27;20409;-84
2022/12/01 09:19:32;;;;;;;27.42;20.42;;;;;;;;;;5135082;27;20421;-83
2022/12/01 09:21:58;;;;;;;26.83;20.92;;;;;;;;;;5135321;27;20452;-82
2022/12/01 09:24:24;;;;;;;29.55;22.08;;;;;;;;;;5135535;27;20378;-84
2022/12/01 09:26:54;;;;;;;36.53;25.60;;;;;;;;;;5134369;27;20454;-84
2022/12/01 09:29:20;;;;;;;26.83;21.20;;;;;;;;;;5134858;27;20518;-83
2022/12/01 09:31:46;;;;;;;26.98;20.88;;;;;;;;;;5134921;27;20455;-86
2022/12/01 09:34:16;;;;;;;28.08;21.80;;;;;;;;;;5134819;27;20378;-84
2022/12/01 09:36:42;;;;;;;28.73;22.20;;;;;;;;;;5131539;27;20378;-85
2022/12/01 09:39:11;;;;;;;28.23;21.17;;;;;;;;;;5116596;27;20393;-82
2022/12/01 09:41:39;;;;;;;29.38;21.88;;;;;;;;;;5134914;27;20410;-82
2022/12/01 09:44:27;;;;;;;29.38;21.67;;;;;;;;;;5134987;27;20433;-82
2022/12/01 09:46:56;;;;;;;29.27;22.33;;;;;;;;;;5135151;27;20889;-82
2022/12/01 09:49:25;;;;;;;27.85;20.98;;;;;;;;;;5136495;27;20397;-82
2022/12/01 09:51:52;;;;;;;27.55;21.25;;;;;;;;;;5136118;27;20418;-83
2022/12/01 09:54:19;;;;;;;29.08;22.58;;;;;;;;;;5135188;27;20955;-82
2022/12/01 09:56:48;;;;;;;26.73;20.25;;;;;;;;;;5134857;27;20889;-82
2022/12/01 09:59:19;;;;;;;28.63;20.80;;;;;;;;;;5135020;27;20370;-82
2022/12/01 10:01:47;;;;;;;26.52;21.02;;;;;;;;;;5134596;27;20410;-82
2022/12/01 10:04:34;;;;;;;27.77;20.95;;;;;;;;;;5134688;27;20412;-82
2022/12/01 10:07:02;;;;;;;25.40;20.08;;;;;;;;;;5134722;27;20431;-83
2022/12/01 10:09:36;;;;;;;26.80;21.02;;;;;;;;;;5134424;27;20401;-82
2022/12/01 10:12:07;;;;;;;24.23;19.93;;;;;;;;;;5134642;27;20396;-82
2022/12/01 10:14:35;;;;;;;25.58;20.20;;;;;;;;;;5134306;27;20518;-82
2022/12/01 10:17:04;;;;;;;27.27;19.73;;;;;;;;;;5134293;27;20374;-85
2022/12/01 10:19:39;;;;;;;28.95;20.55;;;;;;;;;;5132279;27;20826;-83
2022/12/01 10:22:15;;;;;;;24.58;19.63;;;;;;;;;;5134497;27;20424;-82
2022/12/01 10:24:44;;;;;;;25.95;20.08;;;;;;;;;;5135179;27;20379;-82
2022/12/01 10:27:20;;;;;;;24.88;18.88;;;;;;;;;;5134278;27;20461;-82
2022/12/01 10:29:47;;;;;;;25.40;20.17;;;;;;;;;;5134216;27;20441;-82
2022/12/01 10:32:28;;;;;;;26.67;20.17;;;;;;;;;;5134184;27;20385;-85
2022/12/01 10:34:54;;;;;;;25.92;20.38;;;;;;;;;;5134147;27;20473;-82
2022/12/01 10:37:22;;;;;;;26.77;20.77;;;;;;;;;;5133952;27;20761;-82
2022/12/01 10:39:49;;;;;;;26.23;20.25;;;;;;;;;;5115308;27;20435;-82
2022/12/01 10:42:18;;;;;;;27.40;20.00;;;;;;;;;;5133774;27;20375;-82
2022/12/01 10:44:45;;;;;;;27.27;20.15;;;;;;;;;;5115644;27;20401;-82
2022/12/01 10:47:18;;;;;;;24.63;19.30;;;;;;;;;;5133992;27;20437;-82
2022/12/01 10:49:45;;;;;;;25.15;19.92;;;;;;;;;;5133792;27;20417;-83
2022/12/01 10:52:34;;;;;;;25.00;20.27;;;;;;;;;;5124833;27;20395;-83
2022/12/01 10:55:00;;;;;;;28.92;20.38;;;;;;;;;;5117037;27;20477;-83
2022/12/01 10:57:28;;;;;;;25.15;19.98;;;;;;;;;;5133459;27;20470;-82
2022/12/01 10:59:54;;;;;;;27.00;20.20;;;;;;;;;;5131126;27;20416;-82
2022/12/01 11:02:21;;;;;;;23.15;18.75;;;;;;;;;;5132573;27;20398;-83
2022/12/01 11:04:50;;;;;;;25.67;19.77;;;;;;;;;;5133400;27;20374;-82
2022/12/01 11:07:18;;;;;;;21.90;17.85;;;;;;;;;;5133588;27;20382;-82
2022/12/01 11:09:45;;;;;;;22.98;17.80;;;;;;;;;;5135885;27;20367;-82
2022/12/01 11:12:14;;;;;;;20.52;17.02;;;;;;;;;;5133196;27;20382;-82
2022/12/01 11:14:43;;;;;;;19.70;16.90;;;;;;;;;;5133663;27;20581;-82
2022/12/01 11:17:25;;;;;;;24.75;18.23;;;;;;;;;;5133498;27;20414;-82
2022/12/01 11:19:51;;;;;;;20.25;16.13;;;;;;;;;;5132735;27;20441;-82
2022/12/01 11:22:30;;;;;;;19.38;16.55;;;;;;;;;;5114597;28;20434;-81
2022/12/01 11:24:57;;;;;;;19.45;15.80;;;;;;;;;;5133283;27;20383;-82
2022/12/01 11:27:25;;;;;;;18.55;15.45;;;;;;;;;;5133340;27;20382;-84
2022/12/01 11:29:54;;;;;;;18.52;15.70;;;;;;;;;;5114844;28;20387;-83
2022/12/01 11:32:25;;;;;;;16.92;15.13;;;;;;;;;;5133076;27;20390;-83
2022/12/01 11:35:11;;;;;;;17.53;15.17;;;;;;;;;;5133501;27;20434;-83
2022/12/01 11:37:38;;;;;;;17.80;15.88;;;;;;;;;;5115614;27;20451;-84
2022/12/01 11:40:24;;;;;;;16.52;14.82;;;;;;;;;;5130644;27;20421;-84
2022/12/01 11:42:51;;;;;;;16.08;14.07;;;;;;;;;;5128942;27;20399;-83
2022/12/01 11:45:20;;;;;;;15.30;13.70;;;;;;;;;;5133276;27;20416;-83
2022/12/01 11:48:06;;;;;;;15.18;13.57;;;;;;;;;;5114786;27;20485;-83
2022/12/01 11:50:34;;;;;;;14.70;13.30;;;;;;;;;;5135884;27;20810;-83
2022/12/01 11:53:00;;;;;;;15.43;13.80;;;;;;;;;;5137331;27;20411;-82
2022/12/01 11:55:27;;;;;;;15.30;13.70;;;;;;;;;;5137377;27;20747;-81
2022/12/01 11:57:55;;;;;;;16.38;14.63;;;;;;;;;;5136907;27;20453;-82
2022/12/01 12:00:22;;;;;;;15.52;13.88;;;;;;;;;;5136777;27;20410;-82
2022/12/01 12:02:54;;;;;;;16.17;14.48;;;;;;;;;;5136702;27;20437;-82
2022/12/01 12:05:26;;;;;;;16.77;14.87;;;;;;;;;;5136895;27;20899;-83
2022/12/01 12:08:04;;;;;;;15.23;13.63;;;;;;;;;;5136411;27;20390;-82
2022/12/01 12:10:30;;;;;;;16.20;14.40;;;;;;;;;;5136968;27;20390;-82
2022/12/01 12:13:06;;;;;;;15.97;14.27;;;;;;;;;;5136823;27;20374;-83
2022/12/01 12:15:38;;;;;;;18.17;14.02;;;;;;;;;;5118419;27;20383;-83
2022/12/01 12:18:04;;;;;;;15.48;13.93;;;;;;;;;;5136261;27;20850;-83
2022/12/01 12:20:30;;;;;;;14.82;13.23;;;;;;;;;;5136647;27;20441;-83
2022/12/01 12:22:59;;;;;;;14.33;12.83;;;;;;;;;;5136588;27;20370;-83
2022/12/01 12:25:29;;;;;;;14.18;12.65;;;;;;;;;;5117818;27;20932;-84
2022/12/01 12:28:09;;;;;;;15.65;13.27;;;;;;;;;;5137999;27;20423;-83
2022/12/01 12:30:40;;;;;;;14.88;13.25;;;;;;;;;;5118149;27;20393;-80
2022/12/01 12:33:06;;;;;;;14.37;12.97;;;;;;;;;;5136482;27;20419;-80
2022/12/01 12:35:50;;;;;;;14.68;13.18;;;;;;;;;;5136384;27;20379;-80
2022/12/01 12:38:28;;;;;;;14.87;12.73;;;;;;;;;;5136503;27;20891;-80
2022/12/01 12:41:05;;;;;;;14.40;12.75;;;;;;;;;;5135950;27;20493;-80
2022/12/01 12:43:32;;;;;;;31.80;18.63;;;;;;;;;;5135979;27;20431;-84
2022/12/01 12:46:11;;;;;;;69.78;31.38;;;;;;;;;;5135954;27;20370;-81
2022/12/01 12:48:49;;;;;;;16.33;14.23;;;;;;;;;;5135893;27;20420;-81
2022/12/01 12:51:15;;;;;;;14.45;12.95;;;;;;;;;;5136236;27;20477;-83
2022/12/01 12:53:47;;;;;;;21.05;18.65;;;;;;;;;;5135902;27;20441;-83
2022/12/01 12:56:14;;;;;;;25.98;21.67;;;;;;;;;;5136069;27;20430;-80
2022/12/01 12:58:48;;;;;;;31.08;24.67;;;;;;;;;;5135753;27;20419;-82
2022/12/01 13:01:20;;;;;;;18.55;16.23;;;;;;;;;;5135241;27;20456;-80
2022/12/01 13:03:57;;;;;;;48.47;34.27;;;;;;;;;;5135262;27;20378;-81
2022/12/01 13:06:29;;;;;;;19.40;16.10;;;;;;;;;;5136009;27;20411;-81
2022/12/01 13:08:58;;;;;;;20.60;17.98;;;;;;;;;;5132384;27;20516;-81
2022/12/01 13:11:34;;;;;;;15.05;13.55;;;;;;;;;;5135595;27;20374;-81
2022/12/01 13:14:26;;;;;;;19.65;17.10;;;;;;;;;;5135280;27;20379;-81
2022/12/01 13:16:54;;;;;;;20.23;17.42;;;;;;;;;;5106401;27;20454;-81
2022/12/01 13:19:24;;;;;;;16.25;13.85;;;;;;;;;;5117804;27;20384;-81
2022/12/01 13:21:51;;;;;;;15.57;13.82;;;;;;;;;;5128564;27;20406;-81
2022/12/01 13:24:19;;;;;;;21.98;17.95;;;;;;;;;;5136490;27;20383;-81
2022/12/01 13:26:48;;;;;;;19.08;16.67;;;;;;;;;;5135389;27;20386;-81
2022/12/01 13:29:16;;;;;;;24.20;19.17;;;;;;;;;;5135440;27;20371;-81
2022/12/01 13:31:44;;;;;;;17.65;15.45;;;;;;;;;;5130740;27;21092;-82
2022/12/01 13:34:18;;;;;;;16.13;14.40;;;;;;;;;;5133526;27;20406;-82
2022/12/01 13:36:48;;;;;;;15.57;13.98;;;;;;;;;;5126494;27;20420;-82
2022/12/01 13:39:19;;;;;;;16.73;14.53;;;;;;;;;;5115021;27;20399;-82
2022/12/01 13:41:45;;;;;;;17.55;15.20;;;;;;;;;;5134501;27;20492;-82
2022/12/01 13:44:29;;;;;;;16.77;14.75;;;;;;;;;;5135117;27;20467;-82
2022/12/01 13:46:58;;;;;;;16.90;14.00;;;;;;;;;;5134779;27;20449;-83
2022/12/01 13:49:38;;;;;;;16.35;14.48;;;;;;;;;;5131145;27;20903;-82
2022/12/01 13:52:24;;;;;;;16.95;15.07;;;;;;;;;;5121979;27;20382;-83
2022/12/01 13:55:09;;;;;;;16.60;14.82;;;;;;;;;;5134756;27;20874;-82
2022/12/01 13:57:45;;;;;;;16.65;14.82;;;;;;;;;;5134471;27;20411;-82
2022/12/01 14:00:20;;;;;;;16.25;14.55;;;;;;;;;;5138599;27;20484;-82
2022/12/01 14:03:06;;;;;;;17.20;15.07;;;;;;;;;;5131214;27;20414;-82
2022/12/01 14:05:35;;;;;;;16.92;14.68;;;;;;;;;;5120543;27;20381;-83
2022/12/01 14:08:01;;;;;;;15.63;13.82;;;;;;;;;;5116032;27;20430;-83
2022/12/01 14:10:31;;;;;;;16.77;14.50;;;;;;;;;;5134666;27;20391;-82
2022/12/01 14:12:59;;;;;;;15.35;13.73;;;;;;;;;;5133687;27;20446;-82
2022/12/01 14:15:31;;;;;;;15.88;13.85;;;;;;;;;;5134471;27;20385;-82
2022/12/01 14:17:59;;;;;;;15.80;13.80;;;;;;;;;;5134176;27;20719;-82
2022/12/01 14:20:26;;;;;;;16.17;14.00;;;;;;;;;;5134107;27;20985;-83
2022/12/01 14:23:23;;;;;;;15.50;13.85;;;;;;;;;;5134188;27;20379;-82
2022/12/01 14:26:01;;;;;;;18.50;14.35;;;;;;;;;;5113336;27;20391;-83
2022/12/01 14:28:45;;;;;;;16.15;14.40;;;;;;;;;;5134319;27;20378;-83
2022/12/01 14:31:11;;;;;;;18.35;16.08;;;;;;;;;;5136380;27;20387;-83